Time;durP1;ratioP1;P1;durP2;ratioP2;P2;SDS_P1;SDS_P2;PMS_P1;PMS_P2;Temp;Humidity;BMP_temperature;BMP_pressure;BME280_temperature;BME280_humidity;BME280_pressure;Samples;Min_cycle;Max_cycle;Signal;HPM_P1;HPM_P2
2023/01/03 06:55:48;;;;;;;7.22;3.63;;;;;;;;;;10500651;28;20412;-80
2023/01/03 07:00:49;;;;;;;6.68;2.63;;;;;;;;;;10507719;28;20032;-79
2023/01/03 07:05:50;;;;;;;2.70;2.13;;;;;;;;;;10509428;28;20108;-81
2023/01/03 07:10:51;;;;;;;;;;;;;;;;;;10498497;28;20041;-80
2023/01/03 07:15:52;;;;;;;3.65;2.50;;;;;;;;;;10497067;28;19905;-80
2023/01/03 07:20:53;;;;;;;;;;;;;;;;;;10497977;28;20032;-80
2023/01/03 07:25:54;;;;;;;4.68;2.88;;;;;;;;;;10498139;28;20274;-81
2023/01/03 07:30:59;;;;;;;4.65;2.60;;;;;;;;;;10497478;28;20021;-80
2023/01/03 07:36:04;;;;;;;10.73;2.90;;;;;;;;;;10498533;28;20020;-80
2023/01/03 07:41:07;;;;;;;5.22;2.38;;;;;;;;;;10497057;28;20536;-80
2023/01/03 07:46:11;;;;;;;5.40;3.55;;;;;;;;;;10494771;28;20031;-79
2023/01/03 07:51:13;;;;;;;7.38;4.05;;;;;;;;;;10496014;28;20060;-80
2023/01/03 07:56:16;;;;;;;5.72;3.67;;;;;;;;;;10496243;28;20028;-80
2023/01/03 08:01:18;;;;;;;4.53;2.97;;;;;;;;;;10500953;28;20119;-80
2023/01/03 08:06:21;;;;;;;2.55;2.05;;;;;;;;;;10476969;28;20425;-80
2023/01/03 08:16:41;;;;;;;4.93;2.78;;;;;;;;;;10481396;28;20029;-78
2023/01/03 08:21:42;;;;;;;;;;;;;;;;;;10475385;28;20032;-79
2023/01/03 08:26:43;;;;;;;4.72;2.53;;;;;;;;;;10469749;28;19905;-79
2023/01/03 08:31:44;;;;;;;;;;;;;;;;;;10467049;28;20244;-80
2023/01/03 08:36:54;;;;;;;4.72;2.10;;;;;;;;;;10464610;28;19908;-79
2023/01/03 08:42:00;;;;;;;4.18;2.30;;;;;;;;;;10465908;28;20121;-80
2023/01/03 08:47:02;;;;;;;6.85;4.00;;;;;;;;;;10466014;28;20025;-80
2023/01/03 08:52:03;;;;;;;11.65;7.07;;;;;;;;;;10464411;28;20079;-80
2023/01/03 08:57:05;;;;;;;11.63;9.43;;;;;;;;;;10466226;28;20199;-79
2023/01/03 09:02:06;;;;;;;13.00;10.57;;;;;;;;;;10464791;28;20033;-79
2023/01/03 09:07:07;;;;;;;13.25;9.73;;;;;;;;;;10463775;28;20039;-79
2023/01/03 09:12:08;;;;;;;7.88;6.05;;;;;;;;;;10465647;28;20465;-79
2023/01/03 09:17:09;;;;;;;;;;;;;;;;;;10466137;28;20085;-79
2023/01/03 09:22:10;;;;;;;10.07;7.43;;;;;;;;;;10464344;28;20384;-79
2023/01/03 09:27:10;;;;;;;;;;;;;;;;;;10468005;28;20112;-79
2023/01/03 09:32:11;;;;;;;8.25;4.85;;;;;;;;;;10472152;28;20373;-80
2023/01/03 09:37:12;;;;;;;;;;;;;;;;;;10467138;28;20057;-79
2023/01/03 09:47:37;;;;;;;6.22;3.92;;;;;;;;;;10465025;28;20029;-81
2023/01/03 10:03:43;;;;;;;5.50;2.70;;;;;;;;;;10462624;28;20470;-80
2023/01/03 10:08:44;;;;;;;5.57;2.63;;;;;;;;;;10459827;28;20024;-80
2023/01/03 10:13:45;;;;;;;;;;;;;;;;;;10462284;28;20120;-79
2023/01/03 10:18:56;;;;;;;4.55;3.03;;;;;;;;;;10459898;28;19909;-79
2023/01/03 10:23:57;;;;;;;3.92;2.20;;;;;;;;;;10461507;28;20383;-81
2023/01/03 10:28:58;;;;;;;4.30;2.40;;;;;;;;;;10462697;28;20021;-80
2023/01/03 10:34:00;;;;;;;4.65;2.50;;;;;;;;;;10462178;28;20036;-79
2023/01/03 10:39:03;;;;;;;5.40;3.00;;;;;;;;;;10464698;28;20115;-80
2023/01/03 10:44:04;;;;;;;5.80;3.40;;;;;;;;;;10464322;28;20021;-81
2023/01/03 10:49:14;;;;;;;4.80;2.35;;;;;;;;;;10466517;28;20059;-79
2023/01/03 10:54:18;;;;;;;4.05;2.10;;;;;;;;;;10474202;28;20080;-79
2023/01/03 10:59:27;;;;;;;3.88;2.35;;;;;;;;;;10466257;28;20017;-80
2023/01/03 11:04:28;;;;;;;4.38;3.03;;;;;;;;;;10464815;28;20036;-81
2023/01/03 11:09:34;;;;;;;4.82;2.10;;;;;;;;;;10468098;28;20096;-80
2023/01/03 11:14:35;;;;;;;7.65;5.35;;;;;;;;;;10465431;28;20021;-80
2023/01/03 11:19:36;;;;;;;5.10;2.63;;;;;;;;;;10465704;28;20123;-81
2023/01/03 11:24:36;;;;;;;;;;;;;;;;;;10462068;28;20056;-81
2023/01/03 11:29:40;;;;;;;6.85;2.60;;;;;;;;;;10461893;28;19911;-80
2023/01/03 11:34:45;;;;;;;4.43;2.22;;;;;;;;;;10463858;28;20028;-81
2023/01/03 11:40:09;;;;;;;4.20;2.42;;;;;;;;;;10466033;28;20203;-80
2023/01/03 11:45:19;;;;;;;5.40;2.35;;;;;;;;;;10463266;28;20033;-81
2023/01/03 11:50:23;;;;;;;3.40;2.10;;;;;;;;;;10468346;28;20170;-80
2023/01/03 11:55:27;;;;;;;3.97;2.30;;;;;;;;;;10470775;28;20058;-81
2023/01/03 12:00:47;;;;;;;5.80;3.42;;;;;;;;;;10474407;28;20391;-80
2023/01/03 12:05:51;;;;;;;4.93;2.33;;;;;;;;;;10485041;28;20032;-81
2023/01/03 12:10:56;;;;;;;3.45;1.70;;;;;;;;;;10476179;28;20486;-81
2023/01/03 12:16:02;;;;;;;4.72;2.00;;;;;;;;;;10478809;28;20032;-81
2023/01/03 12:21:07;;;;;;;4.13;1.85;;;;;;;;;;10478012;28;20029;-81
2023/01/03 12:26:13;;;;;;;4.55;1.83;;;;;;;;;;10478460;28;20085;-81
2023/01/03 12:31:14;;;;;;;3.70;2.03;;;;;;;;;;10479898;28;20025;-81
2023/01/03 12:36:15;;;;;;;;;;;;;;;;;;10481014;28;20191;-80
2023/01/03 12:41:16;;;;;;;4.50;2.08;;;;;;;;;;10481772;28;20004;-82
2023/01/03 12:46:20;;;;;;;;;;;;;;;;;;10483270;28;20029;-81
2023/01/03 12:51:23;;;;;;;4.05;1.77;;;;;;;;;;10484035;28;20002;-81
2023/01/03 12:56:30;;;;;;;5.55;1.65;;;;;;;;;;10485111;28;20100;-81
2023/01/03 13:01:40;;;;;;;2.70;1.10;;;;;;;;;;10485424;28;20029;-81
2023/01/03 13:06:45;;;;;;;2.63;1.38;;;;;;;;;;10481531;28;20032;-81
2023/01/03 13:11:49;;;;;;;4.18;1.60;;;;;;;;;;10485326;28;20048;-81
2023/01/03 13:16:51;;;;;;;2.70;1.35;;;;;;;;;;10486873;28;20035;-82
2023/01/03 13:21:52;;;;;;;3.42;1.40;;;;;;;;;;10486706;28;20033;-81
2023/01/03 13:26:53;;;;;;;;;;;;;;;;;;10484525;28;20029;-82
2023/01/03 13:32:14;;;;;;;2.75;1.17;;;;;;;;;;10481654;28;19960;-81
2023/01/03 13:37:16;;;;;;;3.83;1.40;;;;;;;;;;10482752;28;20102;-82
2023/01/03 13:42:22;;;;;;;3.28;1.30;;;;;;;;;;10481994;28;20592;-82
2023/01/03 13:47:35;;;;;;;3.08;1.38;;;;;;;;;;10494557;28;20071;-80
2023/01/03 13:52:38;;;;;;;6.65;1.83;;;;;;;;;;10506106;28;20059;-81
2023/01/03 13:57:51;;;;;;;4.35;1.90;;;;;;;;;;10495724;28;20036;-82
2023/01/03 14:03:02;;;;;;;4.25;1.75;;;;;;;;;;10471045;28;20075;-81
2023/01/03 14:08:04;;;;;;;;;;;;;;;;;;10472797;28;20048;-81
2023/01/03 14:13:05;;;;;;;4.95;1.70;;;;;;;;;;10469110;28;19904;-80
2023/01/03 14:18:06;;;;;;;;;;;;;;;;;;10466835;28;20048;-81
2023/01/03 14:23:07;;;;;;;;;;;;;;;;;;10476102;28;19909;-79
2023/01/03 14:28:27;;;;;;;4.03;1.50;;;;;;;;;;10468542;28;20282;-79
2023/01/03 14:33:35;;;;;;;4.95;1.50;;;;;;;;;;10466097;28;20060;-81
2023/01/03 14:38:36;;;;;;;3.53;1.50;;;;;;;;;;10470946;28;20176;-81
2023/01/03 14:43:37;;;;;;;;;;;;;;;;;;10467354;28;20462;-81
2023/01/03 14:48:38;;;;;;;3.33;1.70;;;;;;;;;;10467753;28;19911;-80
2023/01/03 14:53:40;;;;;;;4.13;2.10;;;;;;;;;;10461303;28;20352;-80
2023/01/03 14:58:45;;;;;;;3.53;1.40;;;;;;;;;;10467843;28;20029;-79
2023/01/03 15:03:47;;;;;;;5.70;2.15;;;;;;;;;;10467329;28;20028;-82
2023/01/03 15:08:50;;;;;;;2.85;1.38;;;;;;;;;;10468424;28;20018;-80
2023/01/03 15:13:54;;;;;;;6.20;2.30;;;;;;;;;;10472819;28;20085;-82
2023/01/03 15:19:03;;;;;;;6.18;1.77;;;;;;;;;;10479013;28;20159;-81
2023/01/03 15:24:04;;;;;;;2.83;1.40;;;;;;;;;;10476908;28;20375;-82
2023/01/03 15:29:13;;;;;;;3.95;1.52;;;;;;;;;;10480888;28;20398;-81
2023/01/03 15:34:16;;;;;;;5.45;1.63;;;;;;;;;;10485057;28;20457;-82
2023/01/03 15:39:18;;;;;;;2.80;1.30;;;;;;;;;;10477875;28;20083;-81
2023/01/03 15:44:22;;;;;;;3.92;1.85;;;;;;;;;;10476074;28;20079;-81
2023/01/03 15:49:24;;;;;;;2.97;1.67;;;;;;;;;;10477872;28;20028;-83
2023/01/03 15:54:26;;;;;;;3.03;1.40;;;;;;;;;;10476712;28;20048;-82
2023/01/03 15:59:28;;;;;;;3.10;1.02;;;;;;;;;;10475922;28;20029;-83
2023/01/03 16:04:29;;;;;;;2.97;1.13;;;;;;;;;;10472915;28;20033;-82
2023/01/03 16:09:30;;;;;;;2.60;1.30;;;;;;;;;;10474148;28;20021;-82
2023/01/03 16:14:31;;;;;;;;;;;;;;;;;;10474474;28;20487;-81
2023/01/03 16:19:33;;;;;;;2.70;1.20;;;;;;;;;;10474901;28;19905;-81
2023/01/03 16:24:34;;;;;;;2.70;1.45;;;;;;;;;;10477746;28;20148;-81
2023/01/03 16:29:35;;;;;;;2.92;1.10;;;;;;;;;;10472900;28;20476;-80
2023/01/03 16:34:36;;;;;;;;;;;;;;;;;;10476486;28;20031;-80
2023/01/03 16:39:38;;;;;;;1.73;0.90;;;;;;;;;;10472590;28;19915;-81
2023/01/03 16:44:40;;;;;;;2.00;1.10;;;;;;;;;;10473035;28;20036;-82
2023/01/03 16:49:41;;;;;;;2.63;1.23;;;;;;;;;;10488423;28;20018;-80
2023/01/03 16:54:43;;;;;;;1.80;1.00;;;;;;;;;;10482683;28;20057;-81
2023/01/03 16:59:44;;;;;;;3.53;1.90;;;;;;;;;;10470580;28;20101;-81
2023/01/03 17:04:45;;;;;;;3.17;1.20;;;;;;;;;;10470307;28;20033;-82
2023/01/03 17:09:46;;;;;;;;;;;;;;;;;;10469926;28;20170;-82
2023/01/03 17:14:48;;;;;;;2.13;1.10;;;;;;;;;;10471241;28;19905;-82
2023/01/03 17:19:49;;;;;;;1.80;1.00;;;;;;;;;;10471116;28;20123;-80
2023/01/03 17:24:51;;;;;;;3.17;1.35;;;;;;;;;;10467961;28;20041;-83
2023/01/03 17:29:56;;;;;;;2.20;1.17;;;;;;;;;;10469004;28;20033;-84
2023/01/03 17:34:57;;;;;;;2.30;0.98;;;;;;;;;;10468489;28;20364;-82
2023/01/03 17:39:59;;;;;;;3.47;1.17;;;;;;;;;;10462947;28;20031;-82
2023/01/03 17:50:20;;;;;;;4.18;1.40;;;;;;;;;;10465892;28;20088;-82
2023/01/03 17:55:21;;;;;;;;;;;;;;;;;;10464264;28;20041;-83
2023/01/03 18:00:23;;;;;;;2.50;1.00;;;;;;;;;;10463794;28;20358;-83
2023/01/03 18:05:27;;;;;;;2.80;1.33;;;;;;;;;;10460953;28;20123;-82
2023/01/03 18:10:34;;;;;;;2.88;1.10;;;;;;;;;;10460823;28;20021;-83
2023/01/03 18:15:35;;;;;;;2.67;1.08;;;;;;;;;;10460913;28;20473;-82
2023/01/03 18:20:36;;;;;;;;;;;;;;;;;;10461430;28;20174;-82
2023/01/03 18:25:37;;;;;;;3.15;1.30;;;;;;;;;;10461407;28;19909;-82
2023/01/03 18:30:38;;;;;;;;;;;;;;;;;;10461890;28;20059;-82
2023/01/03 18:35:40;;;;;;;2.55;1.08;;;;;;;;;;10463030;28;20354;-82
2023/01/03 18:40:41;;;;;;;2.42;1.35;;;;;;;;;;10461018;28;20071;-84
2023/01/03 18:45:42;;;;;;;3.28;1.30;;;;;;;;;;10460062;28;20074;-82
2023/01/03 18:50:43;;;;;;;;;;;;;;;;;;10460459;28;20039;-82
2023/01/03 18:55:44;;;;;;;2.30;1.20;;;;;;;;;;10460629;28;19913;-83
2023/01/03 19:00:45;;;;;;;3.35;2.10;;;;;;;;;;10461027;28;20041;-82
2023/01/03 19:05:46;;;;;;;;;;;;;;;;;;10482013;28;20033;-81
2023/01/03 19:10:47;;;;;;;2.80;1.10;;;;;;;;;;10474054;28;19905;-82
2023/01/03 19:15:48;;;;;;;;;;;;;;;;;;10474955;28;20032;-81
2023/01/03 19:20:50;;;;;;;1.70;0.98;;;;;;;;;;10474677;28;20007;-80
2023/01/03 19:25:51;;;;;;;4.10;1.23;;;;;;;;;;10496803;28;20029;-81
2023/01/03 19:30:52;;;;;;;3.05;1.42;;;;;;;;;;10500588;28;20025;-82
2023/01/03 19:35:53;;;;;;;;;;;;;;;;;;10493762;28;20029;-84
2023/01/03 19:40:54;;;;;;;3.17;1.33;;;;;;;;;;10463535;28;20351;-83
2023/01/03 19:45:55;;;;;;;3.42;1.38;;;;;;;;;;10459769;28;20126;-83
2023/01/03 19:50:56;;;;;;;;;;;;;;;;;;10460675;28;20032;-82
2023/01/03 19:55:57;;;;;;;3.25;1.58;;;;;;;;;;10460286;28;20260;-82
2023/01/03 20:00:59;;;;;;;3.08;1.60;;;;;;;;;;10465411;28;20063;-82
2023/01/03 20:06:00;;;;;;;2.10;1.10;;;;;;;;;;10469476;28;20028;-82
2023/01/03 20:11:01;;;;;;;2.55;1.40;;;;;;;;;;10469075;28;20029;-82
2023/01/03 20:16:02;;;;;;;3.08;1.35;;;;;;;;;;10468605;28;20037;-83
